Time;durP1;ratioP1;P1;durP2;ratioP2;P2;SDS_P1;SDS_P2;PMS_P1;PMS_P2;Temp;Humidity;BMP_temperature;BMP_pressure;BME280_temperature;BME280_humidity;BME280_pressure;Samples;Min_cycle;Max_cycle;Signal;HPM_P1;HPM_P2
2022/12/10 00:01:34;;;;;;;44.67;20.73;;;;;;;-1.26;100.00;100816.47;5005408;28;20069;-64
2022/12/10 00:04:00;;;;;;;41.58;20.58;;;;;;;-1.24;100.00;100824.13;4996138;28;20061;-64
2022/12/10 00:06:30;;;;;;;42.70;20.70;;;;;;;-1.26;100.00;100815.63;4991238;28;20136;-64
2022/12/10 00:08:58;;;;;;;49.20;22.65;;;;;;;-1.30;100.00;100812.38;4998407;28;20112;-65
2022/12/10 00:11:24;;;;;;;47.10;20.63;;;;;;;-1.29;100.00;100811.47;5006347;28;20545;-66
2022/12/10 00:13:52;;;;;;;46.42;21.90;;;;;;;-1.24;100.00;100813.81;4998418;28;20060;-62
2022/12/10 00:16:20;;;;;;;47.22;23.25;;;;;;;-1.26;100.00;100816.47;5002028;28;20046;-65
2022/12/10 00:18:47;;;;;;;50.38;22.38;;;;;;;-1.28;100.00;100813.13;4991142;28;20054;-64
2022/12/10 00:21:17;;;;;;;45.25;20.73;;;;;;;-1.24;100.00;100818.97;5002215;28;20399;-64
2022/12/10 00:23:45;;;;;;;50.35;21.48;;;;;;;-1.27;100.00;100814.81;5000817;28;20054;-63
2022/12/10 00:26:12;;;;;;;50.85;21.63;;;;;;;-1.25;100.00;100822.47;4994189;28;20141;-64
2022/12/10 00:28:40;;;;;;;49.05;21.30;;;;;;;-1.29;100.00;100823.50;4996990;28;20042;-63
2022/12/10 00:31:09;;;;;;;48.42;22.95;;;;;;;-1.29;100.00;100819.19;4991384;28;20542;-64
2022/12/10 00:33:36;;;;;;;50.35;22.77;;;;;;;-1.28;100.00;100823.41;4998103;28;20085;-64
2022/12/10 00:36:06;;;;;;;41.97;20.58;;;;;;;-1.22;100.00;100820.56;5004723;28;20057;-64
2022/12/10 00:38:32;;;;;;;46.22;21.33;;;;;;;-1.28;100.00;100817.44;4998100;28;20061;-64
2022/12/10 00:40:59;;;;;;;46.95;20.10;;;;;;;-1.23;100.00;100815.50;5007053;28;20050;-63
2022/12/10 00:43:26;;;;;;;45.13;21.35;;;;;;;-1.26;100.00;100811.31;4997010;28;20065;-63
2022/12/10 00:45:53;;;;;;;48.42;21.80;;;;;;;-1.26;100.00;100816.47;5003559;28;20053;-64
2022/12/10 00:48:21;;;;;;;47.50;21.65;;;;;;;-1.26;100.00;100824.19;4993391;28;20403;-64
2022/12/10 00:51:00;;;;;;;45.10;21.90;;;;;;;-1.21;100.00;100818.84;5007824;28;20437;-63
2022/12/10 00:53:28;;;;;;;50.03;20.83;;;;;;;-1.26;100.00;100818.22;5003843;28;20473;-63
2022/12/10 00:55:55;;;;;;;46.80;20.90;;;;;;;-1.28;100.00;100822.59;4995228;28;20050;-64
2022/12/10 00:58:22;;;;;;;47.17;21.23;;;;;;;-1.26;100.00;100821.59;5001517;28;20107;-64
2022/12/10 01:00:49;;;;;;;47.85;20.73;;;;;;;-1.27;100.00;100821.69;4993263;28;20046;-64
2022/12/10 01:03:15;;;;;;;49.17;22.15;;;;;;;-1.32;100.00;100827.03;5002477;28;20429;-63
2022/12/10 01:05:42;;;;;;;46.70;21.23;;;;;;;-1.34;100.00;100823.69;4991998;28;20053;-64
2022/12/10 01:08:08;;;;;;;49.33;21.08;;;;;;;-1.34;100.00;100828.84;5002776;28;20046;-63
2022/12/10 01:10:34;;;;;;;44.65;21.23;;;;;;;-1.30;100.00;100832.13;5006642;28;20052;-63
2022/12/10 01:13:03;;;;;;;48.42;21.60;;;;;;;-1.25;100.00;100827.63;4999366;28;20100;-63
2022/12/10 01:15:30;;;;;;;48.85;21.25;;;;;;;-1.32;100.00;100832.19;5002617;28;20701;-63
2022/12/10 01:17:56;;;;;;;48.47;22.15;;;;;;;-1.27;100.00;100834.56;5001205;28;20137;-63
2022/12/10 01:20:23;;;;;;;49.08;21.27;;;;;;;-1.31;100.00;100830.47;5007717;28;20068;-64
2022/12/10 01:22:49;;;;;;;47.05;20.98;;;;;;;-1.31;100.00;100835.63;5001899;28;21614;-64
2022/12/10 01:25:16;;;;;;;45.28;21.20;;;;;;;-1.32;100.00;100837.34;5004406;28;20061;-63
2022/12/10 01:27:42;;;;;;;46.97;20.63;;;;;;;-1.33;100.00;100839.97;4999014;28;20560;-63
2022/12/10 01:30:09;;;;;;;51.67;22.15;;;;;;;-1.27;100.00;100837.97;4997380;28;20053;-62
2022/12/10 01:32:36;;;;;;;47.63;20.52;;;;;;;-1.26;100.00;100837.06;5005374;28;20117;-63
2022/12/10 01:35:02;;;;;;;48.63;20.38;;;;;;;-1.27;100.00;100835.41;4995047;28;20058;-64
2022/12/10 01:37:29;;;;;;;44.80;21.10;;;;;;;-1.28;100.00;100838.88;4997907;28;20054;-62
2022/12/10 01:39:55;;;;;;;47.85;20.52;;;;;;;-1.31;100.00;100835.63;4996548;28;20893;-64
2022/12/10 01:42:21;;;;;;;42.80;19.40;;;;;;;-1.30;100.00;100842.41;5002960;28;20057;-64
2022/12/10 01:44:48;;;;;;;46.60;20.02;;;;;;;-1.36;100.00;100835.81;5005476;28;20046;-63
2022/12/10 01:47:14;;;;;;;49.50;21.40;;;;;;;-1.37;100.00;100844.44;4995476;28;20050;-63
2022/12/10 01:49:41;;;;;;;47.67;20.60;;;;;;;-1.35;100.00;100850.34;5004570;28;20056;-63
2022/12/10 01:52:09;;;;;;;46.60;20.40;;;;;;;-1.37;100.00;100853.88;4995626;28;20050;-63
2022/12/10 01:54:40;;;;;;;44.38;21.13;;;;;;;-1.34;100.00;100851.19;5001916;28;20058;-63
2022/12/10 01:57:18;;;;;;;40.58;18.38;;;;;;;-1.39;100.00;100851.41;4986855;28;20054;-64
2022/12/10 01:59:48;;;;;;;47.70;20.98;;;;;;;-1.36;100.00;100853.81;5002565;28;20558;-63
2022/12/10 02:02:40;;;;;;;46.28;20.02;;;;;;;-1.39;100.00;100851.41;5001360;28;20169;-64
2022/12/10 02:05:12;;;;;;;40.65;19.60;;;;;;;-1.37;100.00;100854.75;4987681;28;20119;-64
2022/12/10 02:07:46;;;;;;;46.35;19.48;;;;;;;-1.40;100.00;100849.72;4998101;28;20057;-64
2022/12/10 02:10:49;;;;;;;39.65;19.00;;;;;;;-1.39;100.00;100843.69;4997114;28;20053;-64
2022/12/10 02:13:40;;;;;;;41.20;18.77;;;;;;;-1.47;100.00;100846.59;5005109;28;20050;-64
2022/12/10 02:16:13;;;;;;;44.17;19.55;;;;;;;-1.48;100.00;100844.09;5000762;28;20077;-64
2022/12/10 02:18:50;;;;;;;47.38;19.65;;;;;;;-1.55;100.00;100842.69;5005470;28;20096;-64
2022/12/10 02:21:26;;;;;;;43.78;20.08;;;;;;;-1.57;100.00;100844.50;4995296;28;20061;-64
2022/12/10 02:23:59;;;;;;;43.55;20.23;;;;;;;-1.61;100.00;100849.78;4996575;28;20428;-64
2022/12/10 02:26:58;;;;;;;47.30;21.45;;;;;;;-1.59;100.00;100849.69;4995351;28;20049;-64
2022/12/10 02:29:27;;;;;;;40.92;18.45;;;;;;;-1.60;100.00;100846.28;4993873;28;20042;-64
2022/12/10 02:31:59;;;;;;;46.72;21.35;;;;;;;-1.65;100.00;100845.66;4990617;28;20443;-64
2022/12/10 02:34:30;;;;;;;41.45;19.23;;;;;;;-1.64;100.00;100849.09;4996193;28;20055;-65
2022/12/10 02:37:02;;;;;;;50.30;22.00;;;;;;;-1.65;100.00;100853.38;4997220;28;20064;-64
2022/12/10 02:39:34;;;;;;;46.78;20.92;;;;;;;-1.64;100.00;100857.63;4996048;28;20054;-64
2022/12/10 02:42:03;;;;;;;46.53;20.30;;;;;;;-1.66;100.00;100853.47;5000135;28;20113;-63
2022/12/10 02:44:31;;;;;;;46.47;21.95;;;;;;;-1.66;100.00;100846.56;4997376;28;20045;-64
2022/12/10 02:46:58;;;;;;;43.65;20.35;;;;;;;-1.67;100.00;100842.31;4999199;28;20105;-64
2022/12/10 02:49:26;;;;;;;44.70;20.25;;;;;;;-1.68;100.00;100850.94;4990010;28;20054;-66
2022/12/10 02:51:52;;;;;;;44.43;19.87;;;;;;;-1.68;100.00;100843.22;4999697;28;20116;-64
2022/12/10 02:54:43;;;;;;;49.80;22.50;;;;;;;-1.61;100.00;100846.34;5003061;28;20050;-64
2022/12/10 02:57:41;;;;;;;46.67;19.55;;;;;;;-1.67;100.00;100852.59;5004087;28;20052;-64
2022/12/10 03:00:18;;;;;;;50.38;21.08;;;;;;;-1.65;100.00;100847.41;5003526;28;20112;-64
2022/12/10 03:03:11;;;;;;;41.63;18.67;;;;;;;-1.66;100.00;100846.56;5006828;28;20085;-64
2022/12/10 03:06:05;;;;;;;42.58;19.35;;;;;;;-1.69;100.00;100845.88;4997145;28;20058;-64
2022/12/10 03:08:39;;;;;;;39.78;20.13;;;;;;;-1.72;100.00;100846.84;5009240;28;20050;-64
2022/12/10 03:11:13;;;;;;;42.25;20.63;;;;;;;-1.72;100.00;100846.84;5004583;28;20050;-64
2022/12/10 03:13:47;;;;;;;42.90;19.33;;;;;;;-1.74;100.00;100838.38;5003803;28;20046;-64
2022/12/10 03:16:15;;;;;;;41.35;20.60;;;;;;;-1.79;100.00;100842.84;5008406;28;20054;-62
2022/12/10 03:18:45;;;;;;;45.25;19.67;;;;;;;-1.81;100.00;100842.91;4988531;28;20057;-64
2022/12/10 03:21:13;;;;;;;42.17;18.60;;;;;;;-1.83;100.00;100836.19;5007215;28;20066;-64
2022/12/10 03:23:44;;;;;;;44.83;20.13;;;;;;;-1.85;100.00;100838.81;4995268;28;20382;-64
2022/12/10 03:26:11;;;;;;;39.90;18.40;;;;;;;-1.87;100.00;100840.63;5006703;28;20056;-64
2022/12/10 03:28:43;;;;;;;41.28;19.38;;;;;;;-1.86;100.00;100844.00;5003515;28;20046;-64
2022/12/10 03:31:11;;;;;;;44.70;19.85;;;;;;;-1.88;100.00;100840.69;4998824;28;20414;-63
2022/12/10 03:33:39;;;;;;;38.63;19.17;;;;;;;-1.89;100.00;100837.28;5000192;28;20049;-63
2022/12/10 03:36:07;;;;;;;43.00;20.08;;;;;;;-1.87;100.00;100842.38;4995667;28;20406;-64
2022/12/10 03:38:36;;;;;;;46.15;20.20;;;;;;;-1.89;100.00;100847.56;4998022;28;20134;-64
2022/12/10 03:41:03;;;;;;;47.67;22.00;;;;;;;-1.90;100.00;100845.06;4990398;28;20054;-63
2022/12/10 03:43:29;;;;;;;43.10;20.27;;;;;;;-1.93;100.00;100845.19;5003338;28;20054;-63
2022/12/10 03:45:55;;;;;;;47.42;20.70;;;;;;;-1.94;100.00;100841.81;4989853;28;20062;-64
2022/12/10 03:48:22;;;;;;;45.47;21.08;;;;;;;-1.91;100.00;100845.97;4996290;28;20100;-64
2022/12/10 03:50:48;;;;;;;42.50;19.60;;;;;;;-1.91;100.00;100844.22;4999806;28;20050;-64
2022/12/10 03:53:15;;;;;;;46.78;21.88;;;;;;;-1.94;100.00;100839.22;4987302;28;20050;-64
2022/12/10 03:55:41;;;;;;;45.72;20.20;;;;;;;-1.93;100.00;100842.63;5007660;28;20050;-64
2022/12/10 03:58:07;;;;;;;52.92;21.58;;;;;;;-1.95;100.00;100845.25;4999108;28;20045;-63
2022/12/10 04:00:34;;;;;;;45.65;22.02;;;;;;;-1.95;100.00;100844.44;5004162;28;20050;-64
2022/12/10 04:03:00;;;;;;;44.05;21.42;;;;;;;-1.94;100.00;100841.81;5006246;28;20457;-64
2022/12/10 04:05:27;;;;;;;47.38;21.75;;;;;;;-1.95;100.00;100839.28;5001085;28;20108;-64
2022/12/10 04:07:53;;;;;;;52.33;21.58;;;;;;;-1.97;100.00;100848.81;5001746;28;20046;-64
2022/12/10 04:10:20;;;;;;;48.63;20.52;;;;;;;-2.00;100.00;100842.91;5002683;28;20135;-64
2022/12/10 04:16:26;;;;;;;47.63;21.48;;;;;;;-2.02;100.00;100849.84;4997510;28;20417;-65
2022/12/10 04:18:17;;;;;;;40.53;19.35;;;;;;;-2.05;100.00;100851.69;5002516;28;20046;-64
2022/12/10 04:28:58;;;;;;;45.65;20.83;;;;;;;-1.98;100.00;100858.22;4988932;28;20058;-64
2022/12/10 04:31:25;;;;;;;47.40;21.48;;;;;;;-1.98;100.00;100853.09;5001699;28;20469;-64
2022/12/10 04:33:51;;;;;;;47.13;20.88;;;;;;;-1.97;100.00;100848.81;4999165;28;20060;-63
2022/12/10 04:36:18;;;;;;;49.83;20.30;;;;;;;-1.97;100.00;100853.94;5000303;28;20590;-64
2022/12/10 04:38:44;;;;;;;45.20;21.17;;;;;;;-1.96;100.00;100847.88;5002481;28;20481;-64
2022/12/10 04:41:15;;;;;;;51.50;22.52;;;;;;;-1.97;100.00;100857.34;4997763;28;20486;-64
2022/12/10 04:43:42;;;;;;;42.65;19.75;;;;;;;-1.93;100.00;100853.75;5005116;28;20080;-63
2022/12/10 04:46:09;;;;;;;43.45;21.50;;;;;;;-1.93;100.00;100861.44;4998924;28;20085;-64
2022/12/10 04:48:36;;;;;;;51.38;22.23;;;;;;;-2.04;100.00;100855.91;5001711;28;20050;-64
2022/12/10 04:51:03;;;;;;;58.38;25.95;;;;;;;-2.07;100.00;100862.03;4996908;28;20054;-64
2022/12/10 04:53:29;;;;;;;61.55;24.75;;;;;;;-2.08;100.00;100867.22;5007292;28;20530;-64
2022/12/10 04:55:55;;;;;;;64.30;25.95;;;;;;;-2.11;100.00;100870.78;5004241;28;20053;-64
2022/12/10 04:58:22;;;;;;;65.38;26.48;;;;;;;-2.06;100.00;100875.72;4999317;28;20505;-64
2022/12/10 05:00:48;;;;;;;69.47;28.40;;;;;;;-2.07;100.00;100876.63;5004605;28;20046;-64
2022/12/10 05:03:15;;;;;;;60.65;23.48;;;;;;;-2.08;100.00;100882.66;4993219;28;20064;-64
2022/12/10 05:05:41;;;;;;;63.63;26.33;;;;;;;-2.06;100.00;100879.16;4993048;28;20474;-64
2022/12/10 05:08:07;;;;;;;68.90;27.98;;;;;;;-2.04;100.00;100874.78;4991552;28;20108;-64
2022/12/10 05:10:34;;;;;;;72.53;28.33;;;;;;;-1.98;100.00;100889.06;4996543;28;20053;-64
2022/12/10 05:13:01;;;;;;;76.82;29.17;;;;;;;-1.90;100.00;100881.03;5005489;28;20454;-64
2022/12/10 05:15:27;;;;;;;76.60;29.15;;;;;;;-1.89;100.00;100888.69;5002148;28;20054;-64
2022/12/10 05:17:54;;;;;;;76.13;29.30;;;;;;;-1.92;100.00;100886.28;5003128;28;20061;-65
2022/12/10 05:20:20;;;;;;;70.20;26.95;;;;;;;-2.02;100.00;100893.53;4988589;28;20516;-64
2022/12/10 05:25:52;;;;;;;80.70;31.17;;;;;;;-2.05;100.00;100882.53;4993881;28;20053;-65
2022/12/10 05:28:19;;;;;;;71.78;27.85;;;;;;;-1.99;100.00;100884.84;5006158;28;20390;-64
2022/12/10 05:30:45;;;;;;;88.05;31.10;;;;;;;-1.99;100.00;100877.13;4999987;28;20052;-64
2022/12/10 05:33:12;;;;;;;78.95;31.38;;;;;;;-2.00;100.00;100881.47;4998304;28;20046;-65
2022/12/10 05:35:39;;;;;;;73.55;29.30;;;;;;;-1.93;100.00;100882.03;5000020;28;20053;-64
2022/12/10 05:38:06;;;;;;;81.13;29.73;;;;;;;-1.93;100.00;100879.44;4998314;28;20057;-65
2022/12/10 05:40:36;;;;;;;71.25;29.25;;;;;;;-1.84;100.00;100891.09;4997304;28;20049;-64
2022/12/10 05:43:03;;;;;;;77.35;30.20;;;;;;;-1.85;100.00;100884.28;4997715;28;20052;-64
2022/12/10 05:45:31;;;;;;;85.10;31.42;;;;;;;-1.83;100.00;100872.19;4999769;28;20053;-64
2022/12/10 05:47:58;;;;;;;133.95;33.72;;;;;;;-1.98;100.00;100886.50;4993842;28;20498;-64
2022/12/10 05:50:24;;;;;;;79.75;29.63;;;;;;;-1.96;100.00;100883.88;5002750;28;20060;-64
2022/12/10 05:52:51;;;;;;;94.97;31.13;;;;;;;-1.90;100.00;100886.19;5001084;28;20049;-64
2022/12/10 05:55:17;;;;;;;78.50;29.83;;;;;;;-1.83;100.00;100878.16;5000245;28;20397;-64
2022/12/10 05:57:43;;;;;;;76.57;29.63;;;;;;;-1.76;100.00;100875.31;5006101;28;20080;-64
2022/12/10 06:00:11;;;;;;;123.60;29.98;;;;;;;-1.87;100.00;100883.50;4996497;28;20054;-65
2022/12/10 06:02:37;;;;;;;79.97;28.70;;;;;;;-1.91;100.00;100881.97;4997145;28;20119;-64
2022/12/10 06:05:04;;;;;;;100.40;30.75;;;;;;;-1.84;100.00;100885.94;4996744;28;20054;-65
2022/12/10 06:07:30;;;;;;;275.40;28.52;;;;;;;-2.02;100.00;100885.81;5004476;28;20062;-64
2022/12/10 06:09:56;;;;;;;150.57;29.23;;;;;;;-2.08;100.00;100887.81;4994546;28;20046;-64
2022/12/10 06:12:23;;;;;;;122.93;30.00;;;;;;;-2.10;100.00;100889.59;4998736;28;20100;-65
2022/12/10 06:14:49;;;;;;;137.23;29.55;;;;;;;-2.11;100.00;100886.19;5000362;28;20052;-63
2022/12/10 06:17:16;;;;;;;120.03;28.65;;;;;;;-2.14;100.00;100888.88;4998849;28;20049;-63
2022/12/10 06:19:42;;;;;;;100.30;30.05;;;;;;;-1.97;100.00;100885.63;5001180;28;20522;-63
2022/12/10 06:22:08;;;;;;;172.82;31.63;;;;;;;-1.94;100.00;100885.50;4996080;28;20053;-63
2022/12/10 06:24:35;;;;;;;136.82;30.40;;;;;;;-1.86;100.00;100891.16;5002653;28;20066;-65
2022/12/10 06:27:01;;;;;;;110.18;29.42;;;;;;;-1.85;100.00;100887.66;4995059;28;20056;-64
2022/12/10 06:29:28;;;;;;;118.28;30.40;;;;;;;-1.82;100.00;100887.56;4989828;28;20049;-64
2022/12/10 06:31:54;;;;;;;149.43;29.77;;;;;;;-1.93;100.00;100892.31;5001973;28;20413;-64
2022/12/10 06:34:21;;;;;;;118.97;28.90;;;;;;;-1.92;100.00;100888.84;4991311;28;20096;-64
2022/12/10 06:36:47;;;;;;;156.27;28.67;;;;;;;-1.98;100.00;100891.66;5005605;28;20457;-64
2022/12/10 06:39:13;;;;;;;285.17;30.08;;;;;;;-2.12;100.00;100897.38;4995024;28;20047;-63
2022/12/10 06:41:43;;;;;;;299.15;29.65;;;;;;;-2.27;100.00;100898.84;5001916;28;20050;-64
2022/12/10 06:44:10;;;;;;;150.40;28.77;;;;;;;-2.24;100.00;100905.59;4996601;28;20054;-64
2022/12/10 06:46:36;;;;;;;165.13;29.40;;;;;;;-2.33;100.00;100908.53;5002607;28;20049;-64
2022/12/10 06:49:03;;;;;;;97.70;28.17;;;;;;;-2.26;100.00;100913.34;4997725;28;20049;-64
2022/12/10 06:51:30;;;;;;;183.85;28.52;;;;;;;-2.26;100.00;100910.78;4998459;28;20057;-64
2022/12/10 06:53:56;;;;;;;134.43;28.95;;;;;;;-2.23;100.00;100909.84;5006250;28;20046;-65
2022/12/10 06:56:23;;;;;;;126.60;30.40;;;;;;;-2.19;100.00;100913.97;4996335;28;20056;-65
2022/12/10 06:58:49;;;;;;;154.25;30.52;;;;;;;-2.26;100.00;100922.81;5006027;28;20071;-65
2022/12/10 07:01:20;;;;;;;171.07;29.38;;;;;;;-2.30;100.00;100922.09;5008722;28;20053;-65
2022/12/10 07:03:55;;;;;;;195.30;26.40;;;;;;;-2.35;100.00;100923.16;4996471;28;20077;-64
2022/12/10 07:06:23;;;;;;;184.23;28.38;;;;;;;-2.36;100.00;100924.06;5000918;28;20050;-64
2022/12/10 07:08:50;;;;;;;113.07;25.67;;;;;;;-2.39;100.00;100925.03;4994783;28;20482;-64
2022/12/10 07:11:19;;;;;;;125.93;28.38;;;;;;;-2.29;100.00;100931.47;5004928;28;20406;-64
2022/12/10 07:13:46;;;;;;;206.15;26.02;;;;;;;-2.38;100.00;100936.97;4997465;28;20058;-65
2022/12/10 07:16:21;;;;;;;198.20;28.20;;;;;;;-2.33;100.00;100940.22;5003575;28;20053;-64
2022/12/10 07:18:49;;;;;;;143.73;28.58;;;;;;;-2.30;100.00;100937.50;5009116;28;20048;-64
2022/12/10 07:21:24;;;;;;;133.15;28.13;;;;;;;-2.30;100.00;100941.81;5001759;28;20060;-64
2022/12/10 07:23:53;;;;;;;157.50;29.20;;;;;;;-2.34;100.00;100937.69;5003781;28;20108;-64
2022/12/10 07:26:20;;;;;;;108.05;28.40;;;;;;;-2.32;100.00;100944.44;5000517;28;20149;-64
2022/12/10 07:28:46;;;;;;;114.05;26.80;;;;;;;-2.36;100.00;100944.63;5002683;28;20050;-65
2022/12/10 07:31:20;;;;;;;108.13;28.95;;;;;;;-2.33;100.00;100953.06;4999126;28;20133;-64
2022/12/10 07:33:47;;;;;;;163.00;28.63;;;;;;;-2.35;100.00;100954.00;5009028;28;20493;-65
2022/12/10 07:36:14;;;;;;;153.70;31.60;;;;;;;-2.27;100.00;100962.25;4997189;28;20104;-65
2022/12/10 07:38:40;;;;;;;117.63;29.58;;;;;;;-2.19;100.00;100962.78;5000850;28;20046;-64
2022/12/10 07:41:10;;;;;;;113.07;28.83;;;;;;;-2.16;100.00;100967.78;5006039;28;20101;-64
2022/12/10 07:43:38;;;;;;;99.10;30.00;;;;;;;-2.09;100.00;100970.97;5002453;28;20058;-65
2022/12/10 07:46:11;;;;;;;85.18;28.27;;;;;;;-2.00;100.00;100970.56;5002647;28;20449;-64
2022/12/10 07:48:40;;;;;;;103.28;29.38;;;;;;;-2.02;100.00;100967.22;4990546;28;20486;-64
2022/12/10 07:51:06;;;;;;;149.18;31.13;;;;;;;-2.09;100.00;100966.66;5000205;28;20469;-64
2022/12/10 07:53:33;;;;;;;86.13;25.13;;;;;;;-2.18;100.00;100977.28;5001551;28;20062;-64
2022/12/10 07:56:00;;;;;;;92.13;28.10;;;;;;;-2.16;100.00;100982.38;5003149;28;20537;-64
2022/12/10 07:58:26;;;;;;;89.97;28.17;;;;;;;-2.13;100.00;100984.84;5008772;28;20789;-64
2022/12/10 08:00:53;;;;;;;89.85;27.70;;;;;;;-2.12;100.00;100986.50;4998791;28;20046;-64
2022/12/10 08:03:19;;;;;;;83.28;28.67;;;;;;;-2.10;100.00;100982.13;5001797;28;20517;-64
2022/12/10 08:05:46;;;;;;;80.72;26.73;;;;;;;-2.20;100.00;100987.63;4992387;28;20057;-65
2022/12/10 08:08:12;;;;;;;93.28;26.67;;;;;;;-2.19;100.00;100986.75;5008078;28;20050;-64
2022/12/10 08:10:39;;;;;;;80.38;26.80;;;;;;;-2.16;100.00;100992.66;5005617;28;20167;-64
2022/12/10 08:13:06;;;;;;;75.93;26.60;;;;;;;-2.06;100.00;100987.09;5000148;28;20056;-65
2022/12/10 08:15:32;;;;;;;77.07;27.52;;;;;;;-2.11;100.00;100991.59;4996802;28;20045;-65
2022/12/10 08:17:59;;;;;;;133.65;30.52;;;;;;;-2.13;100.00;101000.25;4988832;28;20062;-65
2022/12/10 08:20:25;;;;;;;95.95;29.15;;;;;;;-2.13;100.00;100988.25;5001495;28;20046;-65
2022/12/10 08:22:51;;;;;;;80.68;27.08;;;;;;;-2.04;100.00;100993.03;4991822;28;20112;-64
2022/12/10 08:25:18;;;;;;;83.13;27.45;;;;;;;-1.99;100.00;100997.97;5004679;28;20400;-64
2022/12/10 08:27:44;;;;;;;91.47;26.70;;;;;;;-1.98;100.00;100997.06;4995578;28;20054;-64
2022/12/10 08:30:11;;;;;;;96.68;30.45;;;;;;;-1.92;100.00;100991.69;4988536;28;20050;-65
2022/12/10 08:32:37;;;;;;;118.68;29.80;;;;;;;-2.00;100.00;101002.28;5000538;28;20045;-64
2022/12/10 08:35:04;;;;;;;113.50;28.95;;;;;;;-1.87;100.00;101001.78;5000426;28;20984;-65
2022/12/10 08:37:30;;;;;;;93.63;28.13;;;;;;;-1.78;100.00;101003.97;5002021;28;20058;-64
2022/12/10 08:39:57;;;;;;;86.13;26.20;;;;;;;-1.71;100.00;101015.66;4994611;28;20045;-65
2022/12/10 08:42:23;;;;;;;83.25;27.85;;;;;;;-1.62;100.00;101017.88;4997079;28;20542;-64
2022/12/10 08:44:50;;;;;;;88.85;29.02;;;;;;;-1.54;100.00;101014.16;4995760;28;20041;-64
2022/12/10 08:47:16;;;;;;;108.75;30.85;;;;;;;-1.62;100.00;101015.31;4995848;28;20077;-65
2022/12/10 08:49:43;;;;;;;76.70;26.83;;;;;;;-1.60;100.00;101012.69;5000691;28;20042;-64
2022/12/10 08:52:09;;;;;;;79.97;26.77;;;;;;;-1.57;100.00;101022.00;4999680;28;20204;-64
2022/12/10 08:54:35;;;;;;;80.13;26.77;;;;;;;-1.60;100.00;101021.22;5006446;28;20052;-64
2022/12/10 08:57:02;;;;;;;77.18;26.08;;;;;;;-1.62;100.00;101020.44;5002199;28;20058;-63
2022/12/10 08:59:28;;;;;;;79.05;25.55;;;;;;;-1.69;100.00;101021.59;4991875;28;20050;-63
2022/12/10 09:01:55;;;;;;;54.78;21.65;;;;;;;-1.71;100.00;101022.56;5002233;28;20133;-64
2022/12/10 09:04:23;;;;;;;69.20;25.85;;;;;;;-1.64;100.00;101022.25;5002366;28;20057;-64
2022/12/10 09:06:50;;;;;;;81.22;26.98;;;;;;;-1.60;100.00;101020.41;5000255;28;20045;-64
2022/12/10 09:09:16;;;;;;;95.40;29.50;;;;;;;-1.69;100.00;101023.34;4992413;28;20049;-64
2022/12/10 09:11:45;;;;;;;95.25;29.08;;;;;;;-1.69;100.00;101028.47;5001374;28;20100;-64
2022/12/10 09:14:12;;;;;;;113.35;24.17;;;;;;;-1.67;100.00;101030.06;4998394;28;20516;-64
2022/12/10 09:16:39;;;;;;;111.07;27.83;;;;;;;-1.64;100.00;101027.41;4997860;28;20112;-63
2022/12/10 09:19:06;;;;;;;88.07;25.88;;;;;;;-1.52;100.00;101035.50;5002620;28;20454;-64
2022/12/10 09:21:32;;;;;;;76.93;24.42;;;;;;;-1.56;100.00;101033.97;4998070;28;20584;-65
2022/12/10 09:23:59;;;;;;;73.60;23.73;;;;;;;-1.55;100.00;101036.47;4993757;28;20046;-65
2022/12/10 09:26:26;;;;;;;68.93;24.90;;;;;;;-1.56;100.00;101042.50;4994037;28;20053;-65
2022/12/10 09:28:52;;;;;;;66.60;22.65;;;;;;;-1.52;100.00;101051.78;5003244;28;20050;-65
2022/12/10 09:31:20;;;;;;;65.18;21.50;;;;;;;-1.59;100.00;101040.06;5006569;28;20123;-64
2022/12/10 09:33:48;;;;;;;77.75;26.85;;;;;;;-1.53;100.00;101041.53;4997597;28;20100;-64
2022/12/10 09:36:15;;;;;;;;;;;;;;;-1.48;100.00;101045.59;5007963;28;20068;-65
2022/12/10 09:38:43;;;;;;;99.18;26.83;;;;;;;-1.55;100.00;101049.31;4990456;28;19933;-65
2022/12/10 09:41:09;;;;;;;77.93;23.02;;;;;;;-1.53;100.00;101044.13;5000072;28;20053;-65
2022/12/10 09:43:56;;;;;;;82.72;25.13;;;;;;;-1.42;100.00;101050.50;4994645;28;20050;-66
2022/12/10 09:46:48;;;;;;;74.47;24.75;;;;;;;-1.37;100.00;101050.31;5005690;28;20046;-65
2022/12/10 09:49:21;;;;;;;69.03;24.17;;;;;;;-1.40;100.00;101051.25;4989802;28;20080;-65
2022/12/10 09:51:48;;;;;;;72.72;24.45;;;;;;;-1.28;100.00;101049.91;4986549;28;20068;-65
2022/12/10 09:54:25;;;;;;;79.85;25.70;;;;;;;-1.27;100.00;101043.88;4998795;28;20050;-65
2022/12/10 09:56:54;;;;;;;63.85;23.17;;;;;;;-1.23;100.00;101048.00;4999540;28;20060;-65
2022/12/10 09:59:35;;;;;;;69.88;23.50;;;;;;;-1.23;100.00;101053.13;5001977;28;20042;-65
2022/12/10 10:02:19;;;;;;;73.63;24.08;;;;;;;-1.17;100.00;101049.47;4994024;28;20078;-65
2022/12/10 10:04:45;;;;;;;83.00;26.15;;;;;;;-1.22;100.00;101057.38;4996209;28;20398;-65
2022/12/10 10:07:20;;;;;;;73.68;25.35;;;;;;;-1.25;100.00;101057.50;4995588;28;20050;-65
2022/12/10 10:09:48;;;;;;;87.88;26.95;;;;;;;-1.27;100.00;101061.91;5004366;28;20042;-65
2022/12/10 10:12:15;;;;;;;72.88;24.13;;;;;;;-1.23;100.00;101060.84;5001983;28;20101;-63
2022/12/10 10:14:44;;;;;;;80.82;27.13;;;;;;;-1.16;100.00;101058.84;4998977;28;20057;-66
2022/12/10 10:17:22;;;;;;;79.70;25.70;;;;;;;-1.11;100.00;101056.94;5004169;28;20053;-65
2022/12/10 10:19:55;;;;;;;81.65;26.40;;;;;;;-1.14;100.00;101046.75;4997236;28;20116;-65
2022/12/10 10:22:21;;;;;;;85.72;27.27;;;;;;;-1.07;100.00;101060.22;4999495;28;20054;-64
2022/12/10 10:24:48;;;;;;;101.07;28.40;;;;;;;-1.10;100.00;101058.59;4990808;28;20050;-64
2022/12/10 10:27:17;;;;;;;86.50;26.88;;;;;;;-1.06;100.00;101060.16;5002165;28;20049;-64
2022/12/10 10:29:45;;;;;;;75.88;24.13;;;;;;;-1.01;100.00;101065.91;5000733;28;20414;-65
2022/12/10 10:32:18;;;;;;;79.10;25.37;;;;;;;-1.07;100.00;101058.47;4994029;28;20054;-63
2022/12/10 10:34:45;;;;;;;92.72;30.02;;;;;;;-1.07;100.00;101055.88;4997514;28;20371;-65
2022/12/10 10:37:28;;;;;;;80.68;25.52;;;;;;;-1.06;100.00;101064.44;4997935;28;20050;-64
2022/12/10 10:39:56;;;;;;;83.40;27.13;;;;;;;-1.06;100.00;101064.44;4996875;28;20054;-65
2022/12/10 10:42:31;;;;;;;87.33;26.67;;;;;;;-0.98;100.00;101064.97;4996768;28;20092;-65
2022/12/10 10:44:58;;;;;;;79.70;25.85;;;;;;;-1.00;100.00;101059.03;5001540;28;20050;-65
2022/12/10 10:47:36;;;;;;;83.18;27.27;;;;;;;-0.87;100.00;101060.16;5001868;28;20050;-65
2022/12/10 10:50:04;;;;;;;91.57;26.67;;;;;;;-0.90;100.00;101062.91;4990963;28;20062;-64
2022/12/10 10:52:37;;;;;;;79.57;26.53;;;;;;;-0.88;100.00;101061.09;4992400;28;20451;-64
2022/12/10 10:55:04;;;;;;;82.88;26.38;;;;;;;-0.86;100.00;101072.16;5002145;28;20057;-64
2022/12/10 10:57:36;;;;;;;91.70;28.73;;;;;;;-0.87;100.00;101064.50;5003882;28;20050;-64
2022/12/10 11:00:11;;;;;;;89.78;26.92;;;;;;;-0.90;100.00;101065.47;4990875;28;20526;-64
2022/12/10 11:02:41;;;;;;;86.55;27.08;;;;;;;-0.88;100.00;101067.97;4991264;28;20050;-64
2022/12/10 11:05:33;;;;;;;81.55;25.58;;;;;;;-0.80;100.00;101064.16;4981383;28;20050;-64
2022/12/10 11:08:05;;;;;;;93.32;28.17;;;;;;;-0.87;100.00;101067.91;5002490;28;20050;-65
2022/12/10 11:10:32;;;;;;;99.60;24.92;;;;;;;-0.90;100.00;101062.03;5007573;28;20112;-65
2022/12/10 11:13:04;;;;;;;99.03;26.02;;;;;;;-0.89;100.00;101063.72;4991266;28;20065;-65
2022/12/10 11:15:32;;;;;;;92.82;27.60;;;;;;;-0.78;100.00;101060.66;5004415;28;20060;-64
2022/12/10 11:17:59;;;;;;;132.45;27.80;;;;;;;-0.84;100.00;101060.06;4998471;28;20045;-65
2022/12/10 11:20:35;;;;;;;84.63;27.35;;;;;;;-0.84;100.00;101052.31;5002039;28;20046;-65
2022/12/10 11:23:09;;;;;;;108.05;28.92;;;;;;;-0.82;100.00;101044.53;5000474;28;20065;-65